Time;durP1;ratioP1;P1;durP2;ratioP2;P2;SDS_P1;SDS_P2;PMS_P1;PMS_P2;Temp;Humidity;BMP_temperature;BMP_pressure;BME280_temperature;BME280_humidity;BME280_pressure;Samples;Min_cycle;Max_cycle;Signal;HPM_P1;HPM_P2
2023/06/21 00:00:13;;;;;;;;;;;24.00;91.10;;;;;;5115038;28;20347;-65
2023/06/21 00:02:40;;;;;;;;;;;23.90;91.20;;;;;;5114877;28;20421;-63
2023/06/21 00:05:06;;;;;;;;;;;23.90;91.40;;;;;;5114787;28;20111;-63
2023/06/21 00:07:32;;;;;;;;;;;23.80;91.50;;;;;;5114887;28;20446;-64
2023/06/21 00:09:57;;;;;;;;;;;23.80;91.70;;;;;;5114947;28;19988;-63
2023/06/21 00:12:24;;;;;;;;;;;23.80;91.70;;;;;;5114037;28;19992;-62
2023/06/21 00:14:50;;;;;;;;;;;23.70;91.90;;;;;;5114663;28;19988;-65
2023/06/21 00:17:15;;;;;;;;;;;23.70;92.10;;;;;;5114562;28;20419;-64
2023/06/21 00:19:41;;;;;;;;;;;23.60;92.10;;;;;;5114627;28;20007;-63
2023/06/21 00:22:07;;;;;;;;;;;23.70;92.30;;;;;;5114656;28;20038;-63
2023/06/21 00:24:32;;;;;;;;;;;23.70;91.70;;;;;;5114428;28;19992;-65
2023/06/21 00:26:58;;;;;;;;;;;23.70;91.50;;;;;;5114460;28;20416;-64
2023/06/21 00:29:23;;;;;;;;;;;23.70;91.40;;;;;;5114517;28;20028;-63
2023/06/21 00:31:49;;;;;;;;;;;23.70;91.50;;;;;;5114393;28;20003;-63
2023/06/21 00:34:14;;;;;;;;;;;23.70;91.70;;;;;;5114386;28;19989;-63
2023/06/21 00:36:42;;;;;;;;;;;23.70;91.20;;;;;;5114444;28;20028;-65
2023/06/21 00:39:09;;;;;;;;;;;23.70;91.20;;;;;;5114202;28;20014;-64
2023/06/21 00:41:35;;;;;;;;;;;23.70;91.30;;;;;;5114227;28;20004;-65
2023/06/21 00:44:01;;;;;;;;;;;23.60;91.30;;;;;;5114428;28;20494;-64
2023/06/21 00:46:26;;;;;;;;;;;23.60;91.20;;;;;;5113933;28;20039;-63
2023/06/21 00:48:52;;;;;;;;;;;23.60;91.10;;;;;;5114103;28;20013;-63
2023/06/21 00:51:17;;;;;;;;;;;23.60;91.10;;;;;;5114226;28;20035;-62
2023/06/21 00:53:43;;;;;;;;;;;23.60;91.30;;;;;;5114106;28;19993;-64
2023/06/21 00:56:09;;;;;;;;;;;23.50;91.60;;;;;;5114082;28;20426;-63
2023/06/21 00:58:35;;;;;;;;;;;23.50;91.70;;;;;;5114118;28;20016;-64
2023/06/21 01:01:00;;;;;;;;;;;23.50;92.00;;;;;;5114402;28;20075;-63
2023/06/21 01:03:26;;;;;;;;;;;23.50;92.30;;;;;;5113998;28;20038;-65
2023/06/21 01:06:01;;;;;;;;;;;23.40;92.40;;;;;;5114081;28;20058;-62
2023/06/21 01:08:41;;;;;;;;;;;23.40;92.40;;;;;;5113998;28;19988;-63
2023/06/21 01:11:21;;;;;;;;;;;23.30;92.50;;;;;;5113743;28;20503;-65
2023/06/21 01:13:51;;;;;;;;;;;23.30;92.90;;;;;;5114218;28;19989;-62
2023/06/21 01:16:17;;;;;;;;;;;23.20;92.80;;;;;;5114105;28;19985;-65
2023/06/21 01:18:46;;;;;;;;;;;23.20;92.90;;;;;;5114152;28;19989;-63
2023/06/21 01:21:18;;;;;;;;;;;23.10;92.90;;;;;;5113829;28;20079;-64
2023/06/21 01:24:02;;;;;;;;;;;23.10;92.80;;;;;;5117462;28;19985;-65
2023/06/21 01:26:37;;;;;;;;;;;23.10;93.40;;;;;;5117820;28;20008;-63
2023/06/21 01:29:11;;;;;;;;;;;23.00;93.60;;;;;;5118050;28;19988;-63
2023/06/21 01:31:39;;;;;;;;;;;23.00;93.80;;;;;;5117940;28;20445;-62
2023/06/21 01:34:05;;;;;;;;;;;23.00;93.80;;;;;;5117715;28;19991;-64
2023/06/21 01:36:31;;;;;;;;;;;23.00;93.80;;;;;;5117683;28;20371;-65
2023/06/21 01:38:57;;;;;;;;;;;23.00;94.10;;;;;;5117488;28;20439;-63
2023/06/21 01:41:23;;;;;;;;;;;23.00;94.00;;;;;;5117487;28;20001;-64
2023/06/21 01:43:49;;;;;;;;;;;23.00;94.00;;;;;;5117711;28;19991;-63
2023/06/21 01:46:16;;;;;;;;;;;23.00;94.10;;;;;;5117312;28;20028;-64
2023/06/21 01:48:42;;;;;;;;;;;23.00;94.20;;;;;;5117317;28;19992;-62
2023/06/21 01:51:09;;;;;;;;;;;22.90;94.00;;;;;;5117901;28;19988;-65
2023/06/21 01:53:36;;;;;;;;;;;22.90;93.90;;;;;;5117122;28;20419;-64
2023/06/21 01:56:02;;;;;;;;;;;22.80;94.10;;;;;;5117424;28;20038;-65
2023/06/21 01:58:28;;;;;;;;;;;22.90;94.20;;;;;;5117436;28;19985;-63
2023/06/21 02:00:56;;;;;;;;;;;22.80;93.80;;;;;;5117274;28;19989;-63
2023/06/21 02:03:22;;;;;;;;;;;22.80;93.60;;;;;;5117162;28;20032;-65
2023/06/21 02:05:49;;;;;;;;;;;22.90;93.80;;;;;;5117347;28;20423;-65
2023/06/21 02:08:17;;;;;;;;;;;22.80;93.60;;;;;;5117023;28;19989;-64
2023/06/21 02:10:44;;;;;;;;;;;22.80;93.50;;;;;;5117033;28;19984;-64
2023/06/21 02:13:10;;;;;;;;;;;22.80;93.40;;;;;;5117024;28;20380;-63
2023/06/21 02:15:37;;;;;;;;;;;22.80;93.60;;;;;;5117241;28;19996;-63
2023/06/21 02:18:03;;;;;;;;;;;22.70;93.40;;;;;;5117190;28;19996;-63
2023/06/21 02:20:29;;;;;;;;;;;22.70;93.10;;;;;;5117271;28;20003;-63
2023/06/21 02:22:55;;;;;;;;;;;22.70;93.10;;;;;;5116742;28;19988;-64
2023/06/21 02:25:21;;;;;;;;;;;22.70;93.10;;;;;;5116762;28;20008;-63
2023/06/21 02:27:47;;;;;;;;;;;22.70;93.70;;;;;;5116700;28;19989;-63
2023/06/21 02:30:13;;;;;;;;;;;22.60;93.50;;;;;;5116700;28;20443;-62
2023/06/21 02:32:38;;;;;;;;;;;22.60;93.60;;;;;;5116683;28;20028;-64
2023/06/21 02:35:05;;;;;;;;;;;22.60;93.40;;;;;;5115990;28;20438;-62
2023/06/21 02:37:30;;;;;;;;;;;22.50;93.50;;;;;;5116325;28;19985;-64
2023/06/21 02:39:56;;;;;;;;;;;22.50;93.30;;;;;;5116637;28;19984;-63
2023/06/21 02:42:22;;;;;;;;;;;22.50;93.50;;;;;;5116357;28;20001;-63
2023/06/21 02:44:48;;;;;;;;;;;22.50;93.60;;;;;;5116380;28;20021;-64
2023/06/21 02:47:13;;;;;;;;;;;22.50;93.60;;;;;;5116466;28;20084;-63
2023/06/21 02:49:39;;;;;;;;;;;22.40;93.70;;;;;;5116465;28;20347;-64
2023/06/21 02:52:04;;;;;;;;;;;22.40;93.90;;;;;;5116135;28;19984;-62
2023/06/21 02:54:30;;;;;;;;;;;22.40;94.20;;;;;;5116265;28;19985;-63
2023/06/21 02:56:56;;;;;;;;;;;22.40;94.10;;;;;;5116174;28;19985;-63
2023/06/21 02:59:22;;;;;;;;;;;22.40;94.20;;;;;;5116056;28;20027;-63
2023/06/21 03:01:48;;;;;;;;;;;22.40;94.40;;;;;;5116191;28;20090;-63
2023/06/21 03:04:16;;;;;;;;;;;22.30;94.50;;;;;;5116113;28;20445;-63
2023/06/21 03:06:42;;;;;;;;;;;22.30;94.50;;;;;;5115596;28;20016;-63
2023/06/21 03:09:08;;;;;;;;;;;22.30;94.70;;;;;;5116071;28;19989;-62
2023/06/21 03:11:34;;;;;;;;;;;22.20;94.90;;;;;;5115863;28;20058;-63
2023/06/21 03:13:59;;;;;;;;;;;22.20;95.10;;;;;;5115803;28;20084;-64
2023/06/21 03:16:25;;;;;;;;;;;22.20;95.70;;;;;;5115751;28;20010;-65
2023/06/21 03:18:50;;;;;;;;;;;22.20;95.70;;;;;;5115777;28;20034;-63
2023/06/21 03:21:16;;;;;;;;;;;22.20;95.90;;;;;;5115486;28;19985;-63
2023/06/21 03:23:41;;;;;;;;;;;22.20;96.10;;;;;;5115635;28;19985;-63
2023/06/21 03:26:07;;;;;;;;;;;22.20;96.20;;;;;;5115619;28;20006;-64
2023/06/21 03:28:33;;;;;;;;;;;22.20;96.40;;;;;;5115449;28;20086;-65
2023/06/21 03:30:58;;;;;;;;;;;22.20;96.60;;;;;;5115398;28;19992;-63
2023/06/21 03:33:24;;;;;;;;;;;22.20;96.70;;;;;;5115482;28;19988;-64
2023/06/21 03:35:50;;;;;;;;;;;22.20;96.80;;;;;;5115331;28;20459;-63
2023/06/21 03:38:17;;;;;;;;;;;22.20;96.90;;;;;;5115248;28;20358;-64
2023/06/21 03:40:43;;;;;;;;;;;22.20;96.80;;;;;;5097100;28;20399;-64
2023/06/21 03:43:09;;;;;;;;;;;22.20;96.30;;;;;;5115215;28;20146;-62
2023/06/21 03:45:34;;;;;;;;;;;22.20;95.90;;;;;;5113947;28;20020;-64
2023/06/21 03:48:03;;;;;;;;;;;22.20;95.60;;;;;;5115244;28;20462;-64
2023/06/21 03:50:29;;;;;;;;;;;22.20;95.80;;;;;;5114894;28;19985;-65
2023/06/21 03:52:55;;;;;;;;;;;22.20;95.50;;;;;;5115167;28;19996;-64
2023/06/21 03:55:21;;;;;;;;;;;22.30;95.80;;;;;;5115045;28;19984;-62
2023/06/21 03:57:46;;;;;;;;;;;22.30;95.20;;;;;;5115026;28;20024;-64
2023/06/21 04:00:13;;;;;;;;;;;22.30;95.20;;;;;;5114923;28;19992;-63
2023/06/21 04:02:39;;;;;;;;;;;22.30;95.40;;;;;;5115000;28;20034;-64
2023/06/21 04:05:05;;;;;;;;;;;22.30;95.80;;;;;;5114660;28;20016;-63
2023/06/21 04:07:30;;;;;;;;;;;22.30;95.20;;;;;;5114732;28;20075;-65
2023/06/21 04:09:56;;;;;;;;;;;22.40;95.20;;;;;;5115051;28;20036;-63
2023/06/21 04:12:22;;;;;;;;;;;22.40;95.10;;;;;;5114858;28;20010;-65
2023/06/21 04:14:47;;;;;;;;;;;22.40;95.30;;;;;;5114616;28;19988;-64
2023/06/21 04:17:13;;;;;;;;;;;22.50;95.30;;;;;;5114574;28;19984;-63
2023/06/21 04:19:38;;;;;;;;;;;22.50;95.40;;;;;;5114305;28;20064;-63
2023/06/21 04:22:04;;;;;;;;;;;22.50;95.60;;;;;;5114645;28;19993;-64
2023/06/21 04:24:30;;;;;;;;;;;22.50;95.40;;;;;;5114345;28;20435;-63
2023/06/21 04:26:58;;;;;;;;;;;22.60;95.20;;;;;;5114813;28;20013;-62
2023/06/21 04:29:23;;;;;;;;;;;22.60;95.80;;;;;;5114540;28;19985;-62
2023/06/21 04:31:51;;;;;;;;;;;22.40;96.30;;;;;;5114201;28;19984;-63
2023/06/21 04:34:17;;;;;;;;;;;22.40;96.70;;;;;;5114364;28;19984;-63
2023/06/21 04:36:47;;;;;;;;;;;22.40;96.60;;;;;;5114417;28;19984;-62
2023/06/21 04:39:16;;;;;;;;;;;22.60;96.70;;;;;;5114266;28;20038;-64
2023/06/21 04:41:41;;;;;;;;;;;22.60;95.70;;;;;;5114201;28;20092;-62
2023/06/21 04:44:07;;;;;;;;;;;22.70;95.70;;;;;;5114440;28;20053;-62
2023/06/21 04:46:36;;;;;;;;;;;22.70;96.10;;;;;;5113559;28;20051;-63
2023/06/21 04:49:04;;;;;;;;;;;22.70;96.60;;;;;;5114453;28;20092;-63
2023/06/21 04:51:30;;;;;;;;;;;22.80;97.00;;;;;;5114158;28;19988;-65
2023/06/21 04:53:58;;;;;;;;;;;22.80;95.90;;;;;;5114242;28;19989;-63
2023/06/21 04:56:27;;;;;;;;;;;22.90;95.50;;;;;;5114220;28;19993;-63
2023/06/21 04:58:53;;;;;;;;;;;22.90;95.30;;;;;;5113875;28;20008;-63
2023/06/21 05:01:19;;;;;;;;;;;23.00;95.20;;;;;;5113567;28;20454;-64
2023/06/21 05:03:52;;;;;;;;;;;23.10;95.10;;;;;;5114046;28;20429;-64
2023/06/21 05:06:20;;;;;;;;;;;23.10;95.00;;;;;;5113720;28;20016;-64
2023/06/21 05:08:46;;;;;;;;;;;23.20;95.10;;;;;;5113758;28;19985;-63
2023/06/21 05:11:11;;;;;;;;;;;23.30;94.70;;;;;;5113667;28;20411;-64
2023/06/21 05:13:37;;;;;;;;;;;23.30;94.70;;;;;;5114098;28;20079;-64
2023/06/21 05:16:02;;;;;;;;;;;23.40;94.30;;;;;;5112427;28;19992;-63
2023/06/21 05:18:28;;;;;;;;;;;23.40;95.40;;;;;;5112792;28;19985;-65
2023/06/21 05:20:55;;;;;;;;;;;23.40;94.90;;;;;;5113827;28;20435;-64
2023/06/21 05:23:20;;;;;;;;;;;23.60;95.10;;;;;;5113137;28;19985;-63
2023/06/21 05:25:46;;;;;;;;;;;23.50;94.60;;;;;;5113412;28;20032;-63
2023/06/21 05:28:12;;;;;;;;;;;23.60;94.70;;;;;;5113948;28;19984;-64
2023/06/21 05:30:37;;;;;;;;;;;23.70;94.50;;;;;;5113281;28;19985;-64
2023/06/21 05:33:03;;;;;;;;;;;23.80;94.80;;;;;;5112873;28;19988;-63
2023/06/21 05:35:28;;;;;;;;;;;23.90;94.70;;;;;;5113826;28;20435;-64
2023/06/21 05:37:54;;;;;;;;;;;24.00;94.10;;;;;;5113412;28;20080;-65
2023/06/21 05:40:20;;;;;;;;;;;24.10;93.90;;;;;;5111851;28;19985;-62
2023/06/21 05:42:45;;;;;;;;;;;24.20;93.60;;;;;;5112042;28;20462;-63
2023/06/21 05:45:11;;;;;;;;;;;24.40;93.30;;;;;;5111696;28;20020;-64
2023/06/21 05:47:37;;;;;;;;;;;24.50;93.10;;;;;;5112317;28;20390;-64
2023/06/21 05:50:03;;;;;;;;;;;24.60;92.50;;;;;;5111909;28;20238;-63
2023/06/21 05:52:29;;;;;;;;;;;24.80;92.30;;;;;;5110412;28;20010;-64
2023/06/21 05:54:54;;;;;;;;;;;24.90;91.80;;;;;;5112580;28;20028;-64
2023/06/21 05:57:20;;;;;;;;;;;24.90;92.00;;;;;;5113802;28;20036;-64
2023/06/21 05:59:45;;;;;;;;;;;25.10;91.50;;;;;;5113385;28;19985;-65
2023/06/21 06:02:11;;;;;;;;;;;25.10;91.10;;;;;;5113217;28;20012;-64
2023/06/21 06:04:37;;;;;;;;;;;25.20;91.10;;;;;;5112560;28;19985;-63
2023/06/21 06:07:03;;;;;;;;;;;25.30;90.90;;;;;;5112629;28;20020;-63
2023/06/21 06:09:29;;;;;;;;;;;25.30;91.10;;;;;;5114753;28;20459;-64
2023/06/21 06:11:56;;;;;;;;;;;25.30;90.50;;;;;;5116824;28;19984;-65
2023/06/21 06:14:22;;;;;;;;;;;25.40;90.30;;;;;;5116720;28;19985;-63
2023/06/21 06:16:48;;;;;;;;;;;25.60;90.20;;;;;;5117047;28;19989;-64
2023/06/21 06:19:13;;;;;;;;;;;25.70;91.10;;;;;;5115979;28;20374;-64
2023/06/21 06:21:39;;;;;;;;;;;25.90;91.20;;;;;;5116082;28;19985;-65
2023/06/21 06:24:04;;;;;;;;;;;26.00;90.60;;;;;;5115870;28;20422;-63
2023/06/21 06:26:30;;;;;;;;;;;26.10;89.30;;;;;;5115760;28;20005;-63
2023/06/21 06:28:55;;;;;;;;;;;26.20;90.00;;;;;;5114816;28;20385;-63
2023/06/21 06:31:28;;;;;;;;;;;26.20;90.10;;;;;;5116749;28;20392;-64
2023/06/21 06:33:54;;;;;;;;;;;26.20;88.50;;;;;;5116442;28;19989;-65
2023/06/21 06:36:19;;;;;;;;;;;26.30;88.00;;;;;;5116523;28;20367;-62
2023/06/21 06:38:45;;;;;;;;;;;26.40;89.40;;;;;;5116611;28;19985;-65
2023/06/21 06:41:11;;;;;;;;;;;26.60;88.70;;;;;;5116375;28;20001;-62
2023/06/21 06:43:37;;;;;;;;;;;26.80;87.30;;;;;;5115783;28;19985;-63
2023/06/21 06:46:02;;;;;;;;;;;27.00;88.00;;;;;;5116038;28;20123;-63
2023/06/21 06:48:28;;;;;;;;;;;27.20;86.30;;;;;;5115752;28;19984;-63
2023/06/21 06:50:53;;;;;;;;;;;27.30;86.20;;;;;;5114110;28;20435;-62
2023/06/21 06:53:19;;;;;;;;;;;27.40;85.80;;;;;;5115645;28;19984;-64
2023/06/21 06:55:44;;;;;;;;;;;27.60;82.90;;;;;;5116141;28;20090;-63
2023/06/21 06:58:10;;;;;;;;;;;27.60;82.40;;;;;;5110800;28;19999;-64
2023/06/21 07:00:36;;;;;;;;;;;27.70;86.00;;;;;;5115284;28;19985;-65
2023/06/21 07:03:01;;;;;;;;;;;27.70;83.70;;;;;;5115929;28;20386;-64
2023/06/21 07:05:27;;;;;;;;;;;27.70;81.10;;;;;;5113651;28;20009;-63
2023/06/21 07:07:53;;;;;;;;;;;27.80;83.00;;;;;;5113989;28;19985;-64
2023/06/21 07:10:19;;;;;;;;;;;27.90;82.50;;;;;;5114341;28;20431;-64
2023/06/21 07:12:45;;;;;;;;;;;28.00;79.80;;;;;;5113664;28;20028;-63
2023/06/21 07:15:11;;;;;;;;;;;28.20;80.10;;;;;;5115343;28;20041;-63
2023/06/21 07:17:36;;;;;;;;;;;28.30;79.20;;;;;;5113646;28;19984;-62
2023/06/21 07:20:02;;;;;;;;;;;28.40;80.20;;;;;;5113575;28;20110;-65
2023/06/21 07:22:28;;;;;;;;;;;28.50;80.00;;;;;;5113550;28;19996;-63
2023/06/21 07:24:54;;;;;;;;;;;28.50;77.40;;;;;;5113386;28;19989;-64
2023/06/21 07:27:19;;;;;;;;;;;28.60;77.80;;;;;;5113440;28;19992;-64
2023/06/21 07:29:45;;;;;;;;;;;28.70;79.20;;;;;;5113029;28;20418;-64
2023/06/21 07:32:10;;;;;;;;;;;28.90;77.40;;;;;;5113991;28;20083;-64
2023/06/21 07:34:36;;;;;;;;;;;29.00;77.80;;;;;;5114568;28;19996;-64
2023/06/21 07:37:02;;;;;;;;;;;29.10;78.20;;;;;;5114877;28;20031;-64
2023/06/21 07:39:27;;;;;;;;;;;29.20;76.20;;;;;;5113613;28;19985;-64
2023/06/21 07:41:54;;;;;;;;;;;29.40;79.30;;;;;;5114640;28;20001;-64
2023/06/21 07:44:19;;;;;;;;;;;29.60;76.80;;;;;;5113182;28;20093;-63
2023/06/21 07:46:51;;;;;;;;;;;29.80;76.90;;;;;;5112197;28;20416;-65
2023/06/21 07:49:17;;;;;;;;;;;30.30;76.60;;;;;;5113835;28;20008;-63
2023/06/21 07:51:42;;;;;;;;;;;31.20;72.70;;;;;;5112306;28;20040;-62
2023/06/21 07:54:08;;;;;;;;;;;32.40;67.70;;;;;;5114067;28;20071;-63
2023/06/21 07:56:34;;;;;;;;;;;33.30;66.80;;;;;;5114701;28;20074;-63
2023/06/21 07:58:59;;;;;;;;;;;34.30;64.00;;;;;;5112976;28;19992;-62
2023/06/21 08:01:25;;;;;;;;;;;34.80;63.10;;;;;;5111889;28;20045;-63
2023/06/21 08:03:50;;;;;;;;;;;34.60;59.80;;;;;;5112940;28;19993;-65
2023/06/21 08:06:16;;;;;;;;;;;34.60;59.30;;;;;;5113408;28;20009;-61
2023/06/21 08:08:41;;;;;;;;;;;34.80;60.10;;;;;;5113810;28;19988;-65
2023/06/21 08:11:08;;;;;;;;;;;34.90;59.70;;;;;;5114378;28;20016;-62
2023/06/21 08:13:33;;;;;;;;;;;35.30;57.20;;;;;;5114773;28;20068;-65
2023/06/21 08:15:59;;;;;;;;;;;35.80;56.90;;;;;;5114390;28;20017;-66
2023/06/21 08:18:25;;;;;;;;;;;36.40;58.30;;;;;;5096625;28;19984;-63
2023/06/21 08:20:50;;;;;;;;;;;36.90;55.10;;;;;;5114655;28;20020;-62
2023/06/21 08:23:16;;;;;;;;;;;37.10;55.50;;;;;;5114524;28;19984;-62
2023/06/21 08:25:42;;;;;;;;;;;37.40;54.50;;;;;;5114578;28;20009;-62
2023/06/21 08:28:07;;;;;;;;;;;37.50;53.40;;;;;;5114476;28;19984;-62
2023/06/21 08:30:33;;;;;;;;;;;37.70;52.50;;;;;;5114510;28;20119;-63
2023/06/21 08:32:58;;;;;;;;;;;37.70;51.10;;;;;;5113815;28;19985;-64
2023/06/21 08:35:24;;;;;;;;;;;37.80;53.50;;;;;;5114676;28;20431;-63
2023/06/21 08:37:59;;;;;;;;;;;37.90;51.60;;;;;;5114349;28;20328;-64
2023/06/21 08:40:26;;;;;;;;;;;38.00;49.70;;;;;;5114266;28;19989;-64
2023/06/21 08:42:52;;;;;;;;;;;37.80;49.10;;;;;;5114501;28;20011;-64
2023/06/21 08:45:17;;;;;;;;;;;37.30;49.00;;;;;;5113844;28;20025;-65
2023/06/21 08:47:45;;;;;;;;;;;36.90;49.70;;;;;;5114066;28;19995;-65
2023/06/21 08:50:13;;;;;;;;;;;36.90;50.80;;;;;;5113464;28;19988;-65
2023/06/21 08:52:41;;;;;;;;;;;36.80;50.00;;;;;;5114119;28;20030;-66
2023/06/21 08:55:09;;;;;;;;;;;36.70;49.50;;;;;;5114119;28;20401;-65
2023/06/21 08:57:38;;;;;;;;;;;36.60;53.50;;;;;;5113779;28;19995;-66
2023/06/21 09:00:05;;;;;;;;;;;36.90;52.60;;;;;;5113957;28;19988;-67
2023/06/21 09:02:30;;;;;;;;;;;36.90;52.10;;;;;;5113515;28;19988;-63
2023/06/21 09:04:58;;;;;;;;;;;37.10;51.30;;;;;;5113817;28;19984;-65
2023/06/21 09:07:23;;;;;;;;;;;37.30;50.90;;;;;;5114211;28;20351;-65
2023/06/21 09:09:51;;;;;;;;;;;37.60;52.80;;;;;;5113752;28;19997;-64
2023/06/21 09:12:17;;;;;;;;;;;37.70;50.90;;;;;;5114132;28;20011;-63
2023/06/21 09:14:42;;;;;;;;;;;37.70;48.70;;;;;;5113550;28;20443;-66
2023/06/21 09:17:08;;;;;;;;;;;37.80;48.10;;;;;;5113591;28;19985;-65
2023/06/21 09:19:35;;;;;;;;;;;37.80;50.60;;;;;;5113750;28;19993;-62
2023/06/21 09:22:01;;;;;;;;;;;37.80;49.00;;;;;;5114051;28;19989;-65
2023/06/21 09:24:26;;;;;;;;;;;38.10;50.10;;;;;;5113917;28;20096;-64
2023/06/21 09:26:52;;;;;;;;;;;38.30;48.00;;;;;;5112884;28;20065;-65
2023/06/21 09:29:18;;;;;;;;;;;38.70;49.70;;;;;;5113785;28;20000;-63
2023/06/21 09:31:43;;;;;;;;;;;38.80;46.90;;;;;;5113457;28;19992;-63
2023/06/21 09:34:09;;;;;;;;;;;39.10;50.00;;;;;;5113491;28;20007;-62
2023/06/21 09:36:34;;;;;;;;;;;38.90;47.90;;;;;;5095324;28;19988;-66
2023/06/21 09:39:09;;;;;;;;;;;38.90;46.70;;;;;;5110869;28;20011;-66
2023/06/21 09:41:35;;;;;;;;;;;38.80;47.00;;;;;;5113214;28;20000;-62
2023/06/21 09:44:01;;;;;;;;;;;38.90;45.30;;;;;;5114564;28;20085;-63
2023/06/21 09:46:27;;;;;;;;;;;39.10;45.50;;;;;;5099985;28;20020;-62
2023/06/21 09:48:52;;;;;;;;;;;39.00;45.30;;;;;;5096450;28;19996;-63
2023/06/21 09:51:22;;;;;;;;;;;39.00;46.00;;;;;;5094051;28;19989;-64
2023/06/21 09:53:50;;;;;;;;;;;39.30;45.90;;;;;;5095931;28;20127;-62
2023/06/21 09:56:19;;;;;;;;;;;39.60;44.30;;;;;;5095520;28;19996;-63
2023/06/21 09:58:47;;;;;;;;;;;39.90;43.40;;;;;;5096313;28;20382;-66
2023/06/21 10:01:16;;;;;;;;;;;40.10;44.50;;;;;;5095287;28;19993;-61
2023/06/21 10:03:45;;;;;;;;;;;40.20;43.90;;;;;;5096554;28;20351;-64
2023/06/21 10:06:16;;;;;;;;;;;40.00;42.80;;;;;;5095753;28;20009;-63
2023/06/21 10:08:42;;;;;;;;;;;39.80;41.60;;;;;;5096499;28;19985;-61
2023/06/21 10:11:08;;;;;;;;;;;39.40;43.30;;;;;;5096064;28;19992;-62
2023/06/21 10:13:34;;;;;;;;;;;39.80;42.30;;;;;;5095460;28;20447;-64
2023/06/21 10:16:00;;;;;;;;;;;39.50;44.20;;;;;;5095652;28;20470;-65
2023/06/21 10:18:26;;;;;;;;;;;39.60;45.50;;;;;;5095716;28;19991;-65
2023/06/21 10:20:56;;;;;;;;;;;40.00;44.30;;;;;;5094549;28;20075;-64
2023/06/21 10:23:22;;;;;;;;;;;40.20;43.30;;;;;;5095352;28;20397;-65
2023/06/21 10:25:49;;;;;;;;;;;40.50;42.20;;;;;;5095727;28;20074;-64
2023/06/21 10:28:17;;;;;;;;;;;40.50;44.80;;;;;;5096143;28;19989;-65
2023/06/21 10:30:43;;;;;;;;;;;40.60;43.30;;;;;;5096110;28;20462;-65
2023/06/21 10:33:09;;;;;;;;;;;40.60;42.20;;;;;;5096045;28;20435;-64
2023/06/21 10:35:36;;;;;;;;;;;40.60;43.00;;;;;;5096216;28;20038;-62
2023/06/21 10:38:08;;;;;;;;;;;40.70;43.60;;;;;;5096219;28;20351;-64
2023/06/21 10:40:37;;;;;;;;;;;40.90;41.30;;;;;;5095671;28;20039;-66
2023/06/21 10:43:02;;;;;;;;;;;40.90;40.10;;;;;;5095613;28;20008;-64
2023/06/21 10:45:29;;;;;;;;;;;40.50;41.50;;;;;;5103119;28;20020;-64
2023/06/21 10:47:55;;;;;;;;;;;40.40;41.40;;;;;;5116066;28;20083;-64
2023/06/21 10:50:21;;;;;;;;;;;40.30;40.50;;;;;;5116355;28;19988;-65
2023/06/21 10:52:47;;;;;;;;;;;40.10;41.20;;;;;;5115443;28;20080;-65
2023/06/21 10:55:14;;;;;;;;;;;40.20;39.40;;;;;;5115197;28;20085;-65
2023/06/21 10:57:40;;;;;;;;;;;39.80;38.20;;;;;;5115929;28;20565;-63
2023/06/21 11:00:06;;;;;;;;;;;39.90;42.50;;;;;;5116113;28;19984;-62
2023/06/21 11:02:32;;;;;;;;;;;39.60;41.20;;;;;;5116087;28;19995;-64
2023/06/21 11:05:17;;;;;;;;;;;39.50;41.70;;;;;;5116226;28;19988;-64
2023/06/21 11:07:58;;;;;;;;;;;39.60;42.70;;;;;;5115951;28;20004;-64
2023/06/21 11:10:59;;;;;;;;;;;39.40;43.30;;;;;;5115887;28;20045;-65
2023/06/21 11:13:38;;;;;;;;;;;39.50;42.40;;;;;;5012660;28;20083;-62
2023/06/21 11:16:10;;;;;;;;;;;39.40;41.00;;;;;;5101600;28;19992;-65
2023/06/21 11:18:36;;;;;;;;;;;39.10;41.30;;;;;;5114921;28;20020;-62
2023/06/21 11:21:04;;;;;;;;;;;39.30;44.30;;;;;;5115419;28;19991;-65
2023/06/21 11:23:29;;;;;;;;;;;39.60;44.50;;;;;;5115517;28;19989;-62
2023/06/21 11:26:01;;;;;;;;;;;39.80;44.60;;;;;;5114159;28;20034;-64
2023/06/21 11:28:31;;;;;;;;;;;40.00;40.20;;;;;;5115580;28;19984;-64
2023/06/21 11:31:11;;;;;;;;;;;40.00;43.10;;;;;;5115850;28;19993;-63
2023/06/21 11:33:55;;;;;;;;;;;40.20;42.30;;;;;;5114620;28;19995;-63
2023/06/21 11:36:25;;;;;;;;;;;40.30;42.60;;;;;;5114568;28;19988;-62
2023/06/21 11:38:52;;;;;;;;;;;40.20;42.80;;;;;;5114973;28;20040;-65
2023/06/21 11:41:42;;;;;;;;;;;39.80;43.80;;;;;;5114919;28;20004;-63
2023/06/21 11:44:08;;;;;;;;;;;40.10;45.20;;;;;;5114913;28;19984;-64
2023/06/21 11:46:33;;;;;;;;;;;40.20;42.50;;;;;;5114730;28;20024;-65
2023/06/21 11:48:59;;;;;;;;;;;39.90;42.70;;;;;;5114110;28;20075;-64
2023/06/21 11:51:25;;;;;;;;;;;39.80;43.40;;;;;;5115006;28;20022;-65
2023/06/21 11:53:51;;;;;;;;;;;39.90;44.10;;;;;;5115010;28;20041;-65
2023/06/21 11:56:18;;;;;;;;;;;39.60;45.20;;;;;;5115403;28;20057;-65
2023/06/21 11:58:45;;;;;;;;;;;39.80;43.70;;;;;;5114929;28;20497;-65
2023/06/21 12:01:11;;;;;;;;;;;40.00;44.60;;;;;;5114972;28;20024;-64
2023/06/21 12:03:37;;;;;;;;;;;40.10;42.50;;;;;;5115121;28;19996;-62
2023/06/21 12:06:03;;;;;;;;;;;40.10;44.00;;;;;;5114623;28;20008;-66
2023/06/21 12:08:29;;;;;;;;;;;40.20;42.20;;;;;;5114429;28;20037;-66
2023/06/21 12:10:59;;;;;;;;;;;40.30;42.60;;;;;;5114840;28;20004;-65
2023/06/21 12:13:24;;;;;;;;;;;40.40;43.60;;;;;;5114774;28;19999;-62
2023/06/21 12:15:54;;;;;;;;;;;40.50;43.20;;;;;;5114495;28;19992;-66
2023/06/21 12:18:20;;;;;;;;;;;40.40;41.10;;;;;;5114862;28;19989;-64
2023/06/21 12:20:46;;;;;;;;;;;40.00;42.60;;;;;;5114673;28;19992;-65
2023/06/21 12:23:11;;;;;;;;;;;40.10;43.60;;;;;;5114601;28;19989;-64
2023/06/21 12:25:44;;;;;;;;;;;40.30;45.20;;;;;;5114368;28;20008;-65
2023/06/21 12:28:09;;;;;;;;;;;40.20;42.00;;;;;;5114509;28;19992;-65
2023/06/21 12:30:48;;;;;;;;;;;40.20;43.80;;;;;;5114331;28;19991;-62
2023/06/21 12:33:14;;;;;;;;;;;40.30;43.80;;;;;;5114529;28;20071;-63
2023/06/21 12:35:39;;;;;;;;;;;40.40;43.80;;;;;;5114447;28;20046;-65
2023/06/21 12:38:09;;;;;;;;;;;40.40;42.40;;;;;;5114593;28;20467;-63
2023/06/21 12:40:34;;;;;;;;;;;40.20;42.00;;;;;;5114365;28;19993;-65
2023/06/21 12:43:00;;;;;;;;;;;40.00;43.50;;;;;;5114528;28;20004;-65
2023/06/21 12:45:25;;;;;;;;;;;39.80;43.90;;;;;;5114020;28;20021;-64
2023/06/21 12:47:53;;;;;;;;;;;39.70;44.10;;;;;;5114278;28;19995;-64
2023/06/21 12:50:22;;;;;;;;;;;39.80;44.20;;;;;;5114260;28;20439;-65
2023/06/21 12:53:00;;;;;;;;;;;39.60;42.60;;;;;;5114179;28;20079;-64
2023/06/21 12:55:26;;;;;;;;;;;39.80;43.40;;;;;;5114541;28;20430;-62
2023/06/21 12:57:51;;;;;;;;;;;40.00;43.70;;;;;;5114281;28;20037;-62
2023/06/21 13:00:17;;;;;;;;;;;40.10;45.10;;;;;;5114094;28;20024;-65
2023/06/21 13:02:43;;;;;;;;;;;40.20;44.10;;;;;;5114340;28;20074;-64
2023/06/21 13:05:09;;;;;;;;;;;40.40;44.20;;;;;;5114274;28;20034;-63
2023/06/21 13:07:34;;;;;;;;;;;40.60;42.50;;;;;;5114001;28;19988;-63
2023/06/21 13:10:00;;;;;;;;;;;40.70;46.00;;;;;;5114134;28;20083;-63
2023/06/21 13:12:26;;;;;;;;;;;40.70;41.50;;;;;;5114099;28;19985;-65
2023/06/21 13:14:51;;;;;;;;;;;40.90;45.00;;;;;;5113727;28;19984;-63
2023/06/21 13:17:17;;;;;;;;;;;41.00;43.40;;;;;;5113973;28;20354;-65
2023/06/21 13:19:42;;;;;;;;;;;40.90;41.50;;;;;;5117759;28;20432;-63
2023/06/21 13:22:08;;;;;;;;;;;40.80;40.70;;;;;;5118100;28;20036;-63
2023/06/21 13:24:34;;;;;;;;;;;40.80;43.40;;;;;;5117990;28;19995;-64
2023/06/21 13:27:01;;;;;;;;;;;40.80;44.00;;;;;;5118057;28;20012;-62
2023/06/21 13:29:27;;;;;;;;;;;40.70;43.30;;;;;;5117928;28;19991;-63
2023/06/21 13:31:52;;;;;;;;;;;40.70;43.00;;;;;;5117863;28;20421;-64
2023/06/21 13:34:18;;;;;;;;;;;40.80;43.10;;;;;;5117938;28;20037;-64
2023/06/21 13:36:43;;;;;;;;;;;40.80;42.60;;;;;;5117915;28;19988;-62
2023/06/21 13:39:09;;;;;;;;;;;40.80;44.00;;;;;;5117783;28;19984;-63
2023/06/21 13:41:34;;;;;;;;;;;40.70;43.40;;;;;;5117718;28;20004;-62
2023/06/21 13:44:00;;;;;;;;;;;40.70;42.40;;;;;;5117596;28;19985;-63
2023/06/21 13:46:25;;;;;;;;;;;40.80;41.20;;;;;;5117276;28;20431;-62
2023/06/21 13:48:51;;;;;;;;;;;40.80;41.10;;;;;;5117799;28;20363;-62
2023/06/21 13:51:16;;;;;;;;;;;40.90;42.30;;;;;;5117670;28;19991;-64
2023/06/21 13:53:44;;;;;;;;;;;40.60;40.50;;;;;;5117494;28;20020;-63
2023/06/21 13:56:09;;;;;;;;;;;40.20;42.40;;;;;;5117401;28;19993;-64
2023/06/21 13:58:35;;;;;;;;;;;40.00;40.70;;;;;;5117301;28;20076;-65
2023/06/21 14:01:01;;;;;;;;;;;40.20;42.80;;;;;;5117412;28;19991;-64
2023/06/21 14:03:27;;;;;;;;;;;40.20;42.30;;;;;;5117277;28;20396;-63
2023/06/21 14:05:53;;;;;;;;;;;40.10;44.20;;;;;;5117311;28;20107;-65
2023/06/21 14:08:18;;;;;;;;;;;40.20;42.10;;;;;;5117235;28;19985;-64
2023/06/21 14:10:44;;;;;;;;;;;40.30;41.10;;;;;;5117141;28;20462;-63
2023/06/21 14:13:12;;;;;;;;;;;40.20;43.00;;;;;;5117243;28;19988;-64